createdAt,value
2022-12-19T00:00:26.692Z,72.46
2022-12-19T00:05:28.192Z,72.37
2022-12-19T00:10:29.614Z,72.76
2022-12-19T00:15:33.600Z,72.90
2022-12-19T00:20:35.125Z,72.75
2022-12-19T00:25:36.600Z,72.68
2022-12-19T00:30:41.137Z,72.91
2022-12-19T00:35:42.681Z,73.15
2022-12-19T00:40:48.149Z,73.19
2022-12-19T00:45:49.637Z,73.20
2022-12-19T00:50:59.522Z,72.77
2022-12-19T00:56:02.605Z,73.43
2022-12-19T01:01:14.233Z,73.22
2022-12-19T01:06:16.331Z,72.53
2022-12-19T01:11:17.869Z,72.81
2022-12-19T01:16:19.429Z,73.03
2022-12-19T01:21:21.584Z,73.60
2022-12-19T01:26:23.071Z,73.10
2022-12-19T01:31:24.672Z,72.76
2022-12-19T01:36:26.268Z,73.49
2022-12-19T01:41:28.372Z,73.40
2022-12-19T01:46:44.764Z,73.26
2022-12-19T01:51:51.865Z,73.46
2022-12-19T01:56:57.274Z,73.84
2022-12-19T02:02:14.216Z,73.63
2022-12-19T02:07:18.337Z,73.51
2022-12-19T02:12:20.112Z,73.47
2022-12-19T02:17:29.277Z,73.06
2022-12-19T02:22:43.719Z,73.21
2022-12-19T02:28:24.262Z,73.02
2022-12-19T02:33:43.116Z,73.50
2022-12-19T02:38:50.008Z,73.42
2022-12-19T02:43:58.838Z,72.91
2022-12-19T02:49:03.482Z,72.72
2022-12-19T02:54:05.593Z,73.06
2022-12-19T02:59:32.065Z,73.01
2022-12-19T03:04:45.559Z,72.58
2022-12-19T03:10:16.571Z,73.48
2022-12-19T03:15:19.934Z,72.46
2022-12-19T03:20:56.821Z,72.47
2022-12-19T03:26:03.463Z,72.86
2022-12-19T03:31:07.273Z,73.28
2022-12-19T03:36:16.023Z,73.36
2022-12-19T03:41:19.730Z,73.55
2022-12-19T03:46:26.146Z,73.44
2022-12-19T03:51:47.547Z,73.13
2022-12-19T03:57:06.077Z,73.33
2022-12-19T04:02:08.911Z,74.41
2022-12-19T04:07:13.363Z,74.69
2022-12-19T04:12:19.459Z,75.06
2022-12-19T04:17:27.889Z,74.94
2022-12-19T04:22:50.821Z,74.62
2022-12-19T04:27:57.231Z,74.69
2022-12-19T04:32:59.182Z,74.22
2022-12-19T04:38:00.752Z,74.73
2022-12-19T04:43:02.192Z,75.19
2022-12-19T04:48:04.189Z,75.61
2022-12-19T04:53:05.971Z,75.39
2022-12-19T04:58:07.862Z,75.87
2022-12-19T05:03:09.321Z,75.05
2022-12-19T05:08:10.824Z,75.82
2022-12-19T05:13:12.764Z,76.48
2022-12-19T05:18:14.248Z,76.60
2022-12-19T05:23:17.940Z,76.09
2022-12-19T05:28:19.821Z,76.07
2022-12-19T05:43:55.825Z,75.11
2022-12-19T05:48:57.340Z,74.97
2022-12-19T05:54:02.299Z,75.41
2022-12-19T08:38:34.360Z,75.98
2022-12-19T09:06:03.098Z,75.47
2022-12-19T09:10:36.741Z,74.91
2022-12-19T09:15:38.494Z,75.47
2022-12-19T09:20:41.313Z,75.19
2022-12-19T09:25:42.910Z,75.42
2022-12-19T09:30:44.828Z,75.00
2022-12-19T09:35:50.572Z,75.44
2022-12-19T09:41:21.664Z,74.88
2022-12-19T10:24:35.138Z,72.41
2022-12-19T10:29:43.071Z,72.49
2022-12-19T10:40:31.007Z,71.58
2022-12-19T11:02:27.944Z,71.23
2022-12-19T11:30:41.364Z,70.56
2022-12-19T11:34:37.995Z,69.40
2022-12-19T12:31:13.774Z,67.92
2022-12-19T12:31:49.894Z,69.43
2022-12-19T12:37:51.458Z,69.22
2022-12-19T12:41:02.546Z,70.45
2022-12-19T12:46:08.700Z,70.81
2022-12-19T12:51:11.157Z,70.47
2022-12-19T12:56:18.514Z,70.26
2022-12-19T13:01:52.007Z,70.14
2022-12-19T13:06:53.650Z,70.17
2022-12-19T13:12:11.764Z,69.98
2022-12-19T13:17:34.281Z,69.89
2022-12-19T13:22:35.806Z,70.65
2022-12-19T13:27:39.570Z,70.57
2022-12-19T13:32:41.122Z,71.35
2022-12-19T13:39:47.737Z,71.32
2022-12-19T13:43:16.830Z,71.91
2022-12-19T13:48:31.134Z,71.70
2022-12-19T13:53:33.163Z,71.36
2022-12-19T13:58:51.263Z,72.41
2022-12-19T14:03:55.796Z,72.61
2022-12-19T14:10:42.364Z,72.84
2022-12-19T14:14:28.767Z,72.42
2022-12-19T14:19:39.768Z,71.93
2022-12-19T14:24:41.680Z,72.20
2022-12-19T14:30:30.345Z,72.75
2022-12-19T14:36:07.636Z,72.89
2022-12-19T14:41:00.226Z,73.11
2022-12-19T14:54:03.319Z,73.64
2022-12-19T14:54:15.828Z,73.87
2022-12-19T14:57:02.402Z,74.03
2022-12-19T15:02:07.508Z,74.86
2022-12-19T15:07:19.678Z,74.69
2022-12-19T15:14:50.492Z,74.80
2022-12-19T15:18:33.097Z,74.88
2022-12-19T15:23:35.144Z,74.99
2022-12-19T15:28:41.659Z,75.32
2022-12-19T15:34:00.153Z,75.54
2022-12-19T15:39:04.819Z,76.38
2022-12-19T15:44:40.586Z,76.21
2022-12-19T15:49:42.256Z,76.96
2022-12-19T15:54:49.177Z,76.79
2022-12-19T15:59:51.966Z,77.04
2022-12-19T16:04:57.026Z,77.49
2022-12-19T16:10:05.651Z,77.45
2022-12-19T16:15:15.407Z,77.88
2022-12-19T16:20:20.006Z,78.24
2022-12-19T16:25:33.304Z,78.19
2022-12-19T16:30:35.370Z,77.78
2022-12-19T16:36:07.397Z,78.07
2022-12-19T16:40:58.588Z,78.20
2022-12-19T16:46:01.756Z,78.03
2022-12-19T16:51:04.499Z,77.80
2022-12-19T16:56:15.490Z,78.32
2022-12-19T17:01:17.578Z,78.18
2022-12-19T17:06:21.581Z,78.58
2022-12-19T17:11:25.964Z,78.97
2022-12-19T17:16:29.097Z,78.93
2022-12-19T17:21:31.153Z,78.76
2022-12-19T17:26:32.868Z,79.40
2022-12-19T17:31:34.760Z,79.11
2022-12-19T17:36:41.196Z,79.09
2022-12-19T17:41:45.324Z,79.11
2022-12-19T17:46:47.848Z,78.64
2022-12-19T17:51:51.318Z,78.61
2022-12-19T17:56:53.627Z,78.71
2022-12-19T18:01:55.331Z,78.53
2022-12-19T18:06:57.082Z,77.83
2022-12-19T18:11:58.622Z,78.81
2022-12-19T18:17:01.310Z,78.71
2022-12-19T18:22:03.044Z,79.43
2022-12-19T18:27:04.690Z,79.84
2022-12-19T18:32:06.321Z,80.07
2022-12-19T18:37:14.465Z,80.78
2022-12-19T18:42:21.479Z,80.54
2022-12-19T18:47:24.078Z,80.28
2022-12-19T18:52:25.641Z,79.78
2022-12-19T18:57:27.203Z,78.71
2022-12-19T19:02:29.404Z,78.16
2022-12-19T19:07:31.108Z,78.89
2022-12-19T19:12:32.655Z,78.99
2022-12-19T19:17:34.840Z,79.31
2022-12-19T19:22:36.737Z,79.61
2022-12-19T19:27:40.353Z,79.55
2022-12-19T19:32:48.365Z,79.40
2022-12-19T19:37:56.688Z,78.98
2022-12-19T19:42:58.251Z,78.25
2022-12-19T19:48:04.268Z,78.05
2022-12-19T19:53:05.784Z,77.49
2022-12-19T19:58:07.489Z,78.23
2022-12-19T20:03:10.743Z,78.81
2022-12-19T20:08:14.124Z,78.87
2022-12-19T20:13:15.884Z,78.78
2022-12-19T20:18:18.064Z,78.59
2022-12-19T20:23:19.777Z,78.60
2022-12-19T20:28:21.432Z,79.16
2022-12-19T20:33:23.474Z,78.83
2022-12-19T20:38:25.177Z,79.71
2022-12-19T20:43:27.518Z,78.99
2022-12-19T20:48:29.073Z,78.48
2022-12-19T20:53:31.940Z,77.52
2022-12-19T20:58:35.867Z,76.96
2022-12-19T21:03:38.454Z,77.19
2022-12-19T21:08:40.690Z,76.18
2022-12-19T21:13:43.065Z,76.09
2022-12-19T21:18:46.630Z,76.79
2022-12-19T21:23:51.323Z,77.85
2022-12-19T21:28:53.783Z,78.48
2022-12-19T21:33:57.694Z,78.15
2022-12-19T21:39:00.610Z,78.38
2022-12-19T21:44:02.250Z,78.82
2022-12-19T21:49:04.020Z,78.30
2022-12-19T21:54:06.009Z,78.19
2022-12-19T21:59:13.241Z,78.51
2022-12-19T22:04:24.273Z,78.81
2022-12-19T22:09:25.914Z,78.76
2022-12-19T22:14:27.475Z,77.34
2022-12-19T22:19:29.022Z,77.55
2022-12-19T22:24:30.627Z,77.31
2022-12-19T22:29:32.306Z,78.24
2022-12-19T22:34:34.312Z,78.10
2022-12-19T22:44:55.246Z,78.88
2022-12-19T22:49:56.969Z,79.04
2022-12-19T22:54:58.659Z,79.89
2022-12-19T23:00:00.428Z,79.96
2022-12-19T23:05:02.003Z,80.05
2022-12-19T23:10:04.093Z,80.23
2022-12-19T23:15:06.122Z,80.33
2022-12-19T23:20:08.580Z,79.33
2022-12-19T23:25:11.423Z,79.82
2022-12-19T23:40:52.504Z,80.41
2022-12-19T23:45:54.455Z,80.36
2022-12-19T23:51:00.985Z,80.50
2022-12-19T23:56:19.885Z,80.60
